sensor_id;sensor_type;location;lat;lon;timestamp;P1;durP1;ratioP1;P2;durP2;ratioP2
21743;SDS011;11034;48.556;9.342;2023-03-01T05:47:34;44.20;;;24.33;;
21743;SDS011;11034;48.556;9.342;2023-03-01T05:50:02;45.55;;;22.33;;
21743;SDS011;11034;48.556;9.342;2023-03-01T05:52:30;42.40;;;21.45;;
21743;SDS011;11034;48.556;9.342;2023-03-01T05:54:58;47.20;;;22.75;;
21743;SDS011;11034;48.556;9.342;2023-03-01T05:57:27;45.38;;;21.98;;
21743;SDS011;11034;48.556;9.342;2023-03-01T05:59:56;43.67;;;22.67;;
21743;SDS011;11034;48.556;9.342;2023-03-01T06:02:24;43.22;;;22.08;;
21743;SDS011;11034;48.556;9.342;2023-03-01T06:04:54;41.22;;;21.67;;
21743;SDS011;11034;48.556;9.342;2023-03-01T06:07:23;44.30;;;22.33;;
21743;SDS011;11034;48.556;9.342;2023-03-01T06:09:51;41.95;;;22.27;;
21743;SDS011;11034;48.556;9.342;2023-03-01T06:12:19;46.30;;;21.65;;
21743;SDS011;11034;48.556;9.342;2023-03-01T06:14:47;40.47;;;21.77;;
21743;SDS011;11034;48.556;9.342;2023-03-01T06:17:15;38.15;;;21.00;;
21743;SDS011;11034;48.556;9.342;2023-03-01T06:19:43;43.55;;;22.38;;
21743;SDS011;11034;48.556;9.342;2023-03-01T06:22:12;46.17;;;21.67;;
21743;SDS011;11034;48.556;9.342;2023-03-01T06:24:40;43.60;;;21.85;;
21743;SDS011;11034;48.556;9.342;2023-03-01T06:27:08;43.17;;;21.92;;
21743;SDS011;11034;48.556;9.342;2023-03-01T06:29:36;46.53;;;22.60;;
21743;SDS011;11034;48.556;9.342;2023-03-01T06:32:06;46.55;;;22.73;;
21743;SDS011;11034;48.556;9.342;2023-03-01T06:34:35;43.30;;;22.50;;
21743;SDS011;11034;48.556;9.342;2023-03-01T06:37:03;43.17;;;22.98;;
21743;SDS011;11034;48.556;9.342;2023-03-01T06:39:32;46.05;;;22.92;;
21743;SDS011;11034;48.556;9.342;2023-03-01T06:42:01;46.70;;;22.90;;
21743;SDS011;11034;48.556;9.342;2023-03-01T06:44:29;43.65;;;22.08;;
21743;SDS011;11034;48.556;9.342;2023-03-01T06:46:57;46.45;;;22.85;;
21743;SDS011;11034;48.556;9.342;2023-03-01T06:49:25;44.58;;;22.63;;
21743;SDS011;11034;48.556;9.342;2023-03-01T06:51:53;49.92;;;24.65;;
21743;SDS011;11034;48.556;9.342;2023-03-01T06:54:21;44.47;;;22.35;;
21743;SDS011;11034;48.556;9.342;2023-03-01T06:56:51;47.28;;;24.63;;
21743;SDS011;11034;48.556;9.342;2023-03-01T06:59:19;44.50;;;22.48;;
21743;SDS011;11034;48.556;9.342;2023-03-01T07:01:47;45.67;;;22.13;;
21743;SDS011;11034;48.556;9.342;2023-03-01T07:04:15;45.00;;;22.08;;
21743;SDS011;11034;48.556;9.342;2023-03-01T07:06:43;45.17;;;22.38;;
21743;SDS011;11034;48.556;9.342;2023-03-01T07:09:11;43.80;;;21.60;;
21743;SDS011;11034;48.556;9.342;2023-03-01T07:11:39;41.70;;;21.23;;
21743;SDS011;11034;48.556;9.342;2023-03-01T07:14:08;43.88;;;22.67;;
21743;SDS011;11034;48.556;9.342;2023-03-01T07:16:36;44.78;;;22.38;;
21743;SDS011;11034;48.556;9.342;2023-03-01T07:19:04;39.08;;;21.63;;
21743;SDS011;11034;48.556;9.342;2023-03-01T07:21:32;45.50;;;22.83;;
21743;SDS011;11034;48.556;9.342;2023-03-01T07:24:00;44.30;;;22.25;;
21743;SDS011;11034;48.556;9.342;2023-03-01T07:26:28;42.72;;;22.20;;
21743;SDS011;11034;48.556;9.342;2023-03-01T07:28:58;43.30;;;21.65;;
21743;SDS011;11034;48.556;9.342;2023-03-01T07:31:28;50.92;;;24.75;;
21743;SDS011;11034;48.556;9.342;2023-03-01T07:33:56;44.42;;;22.02;;
21743;SDS011;11034;48.556;9.342;2023-03-01T07:36:24;49.33;;;23.13;;
21743;SDS011;11034;48.556;9.342;2023-03-01T07:38:52;43.97;;;21.45;;
21743;SDS011;11034;48.556;9.342;2023-03-01T07:41:21;44.60;;;21.77;;
21743;SDS011;11034;48.556;9.342;2023-03-01T07:43:49;40.42;;;21.48;;
21743;SDS011;11034;48.556;9.342;2023-03-01T15:02:33;29.27;;;17.38;;
21743;SDS011;11034;48.556;9.342;2023-03-01T15:05:03;28.77;;;16.98;;
21743;SDS011;11034;48.556;9.342;2023-03-01T15:07:35;27.20;;;16.38;;
21743;SDS011;11034;48.556;9.342;2023-03-01T15:10:06;29.65;;;17.45;;
21743;SDS011;11034;48.556;9.342;2023-03-01T15:12:43;29.75;;;16.73;;
21743;SDS011;11034;48.556;9.342;2023-03-01T15:15:30;29.02;;;16.98;;
21743;SDS011;11034;48.556;9.342;2023-03-01T15:18:03;25.92;;;16.45;;
21743;SDS011;11034;48.556;9.342;2023-03-01T15:20:34;33.17;;;17.60;;
21743;SDS011;11034;48.556;9.342;2023-03-01T15:23:02;32.17;;;18.02;;
21743;SDS011;11034;48.556;9.342;2023-03-01T15:25:31;28.98;;;16.73;;
21743;SDS011;11034;48.556;9.342;2023-03-01T15:28:00;28.80;;;16.92;;
21743;SDS011;11034;48.556;9.342;2023-03-01T15:30:31;29.00;;;16.90;;
21743;SDS011;11034;48.556;9.342;2023-03-01T15:33:18;27.48;;;17.05;;
21743;SDS011;11034;48.556;9.342;2023-03-01T15:35:57;31.25;;;16.95;;
21743;SDS011;11034;48.556;9.342;2023-03-01T15:38:29;31.70;;;16.92;;
21743;SDS011;11034;48.556;9.342;2023-03-01T15:41:00;32.58;;;17.10;;
21743;SDS011;11034;48.556;9.342;2023-03-01T15:43:37;29.77;;;16.63;;
21743;SDS011;11034;48.556;9.342;2023-03-01T15:46:17;25.98;;;12.77;;
21743;SDS011;11034;48.556;9.342;2023-03-01T15:48:52;29.55;;;17.02;;
21743;SDS011;11034;48.556;9.342;2023-03-01T15:51:27;26.42;;;15.63;;
21743;SDS011;11034;48.556;9.342;2023-03-01T15:54:00;28.80;;;16.42;;
21743;SDS011;11034;48.556;9.342;2023-03-01T15:56:31;27.52;;;16.02;;
21743;SDS011;11034;48.556;9.342;2023-03-01T15:59:00;27.55;;;16.98;;
21743;SDS011;11034;48.556;9.342;2023-03-01T16:01:29;28.33;;;14.50;;
21743;SDS011;11034;48.556;9.342;2023-03-01T16:04:01;26.85;;;15.95;;
21743;SDS011;11034;48.556;9.342;2023-03-01T16:06:29;28.40;;;16.27;;
21743;SDS011;11034;48.556;9.342;2023-03-01T16:08:58;25.63;;;16.38;;
21743;SDS011;11034;48.556;9.342;2023-03-01T16:11:26;29.02;;;16.35;;
21743;SDS011;11034;48.556;9.342;2023-03-01T16:13:54;26.50;;;15.27;;
21743;SDS011;11034;48.556;9.342;2023-03-01T16:16:22;26.83;;;16.27;;
21743;SDS011;11034;48.556;9.342;2023-03-01T16:18:50;26.30;;;14.98;;
21743;SDS011;11034;48.556;9.342;2023-03-01T16:21:23;30.52;;;15.85;;
21743;SDS011;11034;48.556;9.342;2023-03-01T16:23:52;26.08;;;16.23;;
21743;SDS011;11034;48.556;9.342;2023-03-01T16:26:20;25.73;;;15.73;;
21743;SDS011;11034;48.556;9.342;2023-03-01T16:28:48;27.30;;;15.23;;
21743;SDS011;11034;48.556;9.342;2023-03-01T16:31:17;28.42;;;16.05;;
21743;SDS011;11034;48.556;9.342;2023-03-01T16:33:46;31.20;;;16.55;;
21743;SDS011;11034;48.556;9.342;2023-03-01T16:36:18;28.13;;;15.85;;
21743;SDS011;11034;48.556;9.342;2023-03-01T16:38:51;25.60;;;15.63;;
21743;SDS011;11034;48.556;9.342;2023-03-01T16:41:20;22.80;;;13.38;;
21743;SDS011;11034;48.556;9.342;2023-03-01T16:43:49;25.38;;;13.98;;
21743;SDS011;11034;48.556;9.342;2023-03-01T16:46:19;26.70;;;15.73;;
21743;SDS011;11034;48.556;9.342;2023-03-01T16:48:48;29.27;;;16.23;;
21743;SDS011;11034;48.556;9.342;2023-03-01T16:51:17;35.20;;;18.73;;
21743;SDS011;11034;48.556;9.342;2023-03-01T16:53:46;27.02;;;16.20;;
21743;SDS011;11034;48.556;9.342;2023-03-01T16:56:16;26.25;;;15.38;;
21743;SDS011;11034;48.556;9.342;2023-03-01T16:58:45;29.65;;;16.45;;
21743;SDS011;11034;48.556;9.342;2023-03-01T17:01:14;25.00;;;15.65;;
21743;SDS011;11034;48.556;9.342;2023-03-01T17:03:44;30.63;;;16.20;;
21743;SDS011;11034;48.556;9.342;2023-03-01T17:06:14;29.73;;;15.73;;
21743;SDS011;11034;48.556;9.342;2023-03-01T17:08:43;29.73;;;15.90;;
21743;SDS011;11034;48.556;9.342;2023-03-01T17:11:12;29.75;;;17.10;;
21743;SDS011;11034;48.556;9.342;2023-03-01T17:13:43;29.77;;;16.20;;
21743;SDS011;11034;48.556;9.342;2023-03-01T17:16:13;29.20;;;16.55;;
21743;SDS011;11034;48.556;9.342;2023-03-01T17:18:43;32.47;;;16.83;;
21743;SDS011;11034;48.556;9.342;2023-03-01T17:21:11;29.48;;;17.60;;
21743;SDS011;11034;48.556;9.342;2023-03-01T17:23:42;32.03;;;17.40;;
21743;SDS011;11034;48.556;9.342;2023-03-01T17:26:11;29.60;;;18.23;;
21743;SDS011;11034;48.556;9.342;2023-03-01T17:28:40;28.33;;;16.88;;
21743;SDS011;11034;48.556;9.342;2023-03-01T17:31:10;31.02;;;17.92;;
21743;SDS011;11034;48.556;9.342;2023-03-01T17:33:38;35.72;;;23.33;;
21743;SDS011;11034;48.556;9.342;2023-03-01T17:36:06;35.67;;;23.00;;
21743;SDS011;11034;48.556;9.342;2023-03-01T17:38:34;29.90;;;17.13;;
21743;SDS011;11034;48.556;9.342;2023-03-01T17:41:03;30.75;;;16.85;;
21743;SDS011;11034;48.556;9.342;2023-03-01T17:43:31;29.83;;;16.08;;
21743;SDS011;11034;48.556;9.342;2023-03-01T17:46:00;27.65;;;15.80;;
21743;SDS011;11034;48.556;9.342;2023-03-01T17:48:30;27.58;;;15.65;;
21743;SDS011;11034;48.556;9.342;2023-03-01T17:50:58;29.98;;;15.65;;
21743;SDS011;11034;48.556;9.342;2023-03-01T17:53:26;33.33;;;16.10;;
21743;SDS011;11034;48.556;9.342;2023-03-01T17:55:58;28.50;;;16.48;;
21743;SDS011;11034;48.556;9.342;2023-03-01T17:58:27;28.25;;;16.70;;
21743;SDS011;11034;48.556;9.342;2023-03-01T18:00:56;26.42;;;15.93;;
21743;SDS011;11034;48.556;9.342;2023-03-01T18:03:35;29.92;;;16.63;;
21743;SDS011;11034;48.556;9.342;2023-03-01T18:06:09;29.02;;;16.17;;
21743;SDS011;11034;48.556;9.342;2023-03-01T18:08:38;30.48;;;15.95;;
21743;SDS011;11034;48.556;9.342;2023-03-01T18:11:06;29.30;;;16.70;;
21743;SDS011;11034;48.556;9.342;2023-03-01T18:13:34;29.70;;;16.27;;
21743;SDS011;11034;48.556;9.342;2023-03-01T18:16:04;28.88;;;16.58;;
21743;SDS011;11034;48.556;9.342;2023-03-01T18:18:33;35.20;;;17.10;;
21743;SDS011;11034;48.556;9.342;2023-03-01T18:21:02;36.15;;;17.40;;
21743;SDS011;11034;48.556;9.342;2023-03-01T18:23:31;32.60;;;17.98;;
21743;SDS011;11034;48.556;9.342;2023-03-01T18:26:01;30.60;;;17.17;;
21743;SDS011;11034;48.556;9.342;2023-03-01T18:28:30;30.38;;;16.73;;
21743;SDS011;11034;48.556;9.342;2023-03-01T18:31:00;30.60;;;16.13;;
21743;SDS011;11034;48.556;9.342;2023-03-01T18:33:30;33.40;;;17.17;;
21743;SDS011;11034;48.556;9.342;2023-03-01T18:35:58;30.70;;;16.40;;
21743;SDS011;11034;48.556;9.342;2023-03-01T18:38:28;35.08;;;16.38;;
21743;SDS011;11034;48.556;9.342;2023-03-01T18:40:56;34.20;;;17.13;;
21743;SDS011;11034;48.556;9.342;2023-03-01T18:43:24;41.85;;;22.95;;
21743;SDS011;11034;48.556;9.342;2023-03-01T18:45:57;40.15;;;23.30;;
21743;SDS011;11034;48.556;9.342;2023-03-01T18:48:25;36.97;;;20.40;;
21743;SDS011;11034;48.556;9.342;2023-03-01T18:50:55;33.13;;;17.25;;
21743;SDS011;11034;48.556;9.342;2023-03-01T18:53:23;40.63;;;19.13;;
21743;SDS011;11034;48.556;9.342;2023-03-01T18:55:57;29.48;;;16.75;;
21743;SDS011;11034;48.556;9.342;2023-03-01T18:58:27;33.95;;;18.20;;
21743;SDS011;11034;48.556;9.342;2023-03-01T19:00:55;34.55;;;18.23;;
21743;SDS011;11034;48.556;9.342;2023-03-01T19:03:23;35.22;;;17.52;;
21743;SDS011;11034;48.556;9.342;2023-03-01T19:05:51;34.17;;;17.70;;
21743;SDS011;11034;48.556;9.342;2023-03-01T19:08:19;31.98;;;18.25;;
21743;SDS011;11034;48.556;9.342;2023-03-01T19:10:54;30.08;;;16.67;;
21743;SDS011;11034;48.556;9.342;2023-03-01T19:13:23;34.53;;;18.75;;
21743;SDS011;11034;48.556;9.342;2023-03-01T19:15:52;35.03;;;18.85;;
21743;SDS011;11034;48.556;9.342;2023-03-01T19:18:28;33.25;;;17.85;;
21743;SDS011;11034;48.556;9.342;2023-03-01T19:20:57;34.45;;;17.77;;
21743;SDS011;11034;48.556;9.342;2023-03-01T19:23:30;36.95;;;18.23;;
21743;SDS011;11034;48.556;9.342;2023-03-01T19:26:02;38.25;;;18.88;;
21743;SDS011;11034;48.556;9.342;2023-03-01T19:28:32;34.05;;;18.90;;
21743;SDS011;11034;48.556;9.342;2023-03-01T19:31:05;40.75;;;18.33;;
21743;SDS011;11034;48.556;9.342;2023-03-01T19:33:35;35.40;;;19.02;;
21743;SDS011;11034;48.556;9.342;2023-03-01T19:36:05;33.38;;;18.02;;
21743;SDS011;11034;48.556;9.342;2023-03-01T19:38:34;40.47;;;18.83;;
21743;SDS011;11034;48.556;9.342;2023-03-01T19:41:05;34.28;;;18.17;;
21743;SDS011;11034;48.556;9.342;2023-03-01T19:43:35;34.58;;;18.23;;
21743;SDS011;11034;48.556;9.342;2023-03-01T19:46:03;34.47;;;18.73;;
21743;SDS011;11034;48.556;9.342;2023-03-01T19:48:31;32.55;;;17.95;;
21743;SDS011;11034;48.556;9.342;2023-03-01T19:50:59;38.90;;;19.60;;
21743;SDS011;11034;48.556;9.342;2023-03-01T19:53:27;38.65;;;19.60;;
21743;SDS011;11034;48.556;9.342;2023-03-01T19:55:56;36.97;;;18.05;;
21743;SDS011;11034;48.556;9.342;2023-03-01T19:58:26;37.78;;;18.70;;
21743;SDS011;11034;48.556;9.342;2023-03-01T20:00:54;40.95;;;21.27;;
21743;SDS011;11034;48.556;9.342;2023-03-01T20:03:24;37.95;;;20.13;;
21743;SDS011;11034;48.556;9.342;2023-03-01T20:05:53;40.25;;;21.38;;
21743;SDS011;11034;48.556;9.342;2023-03-01T20:08:22;39.40;;;20.60;;
21743;SDS011;11034;48.556;9.342;2023-03-01T20:10:50;39.40;;;19.92;;
21743;SDS011;11034;48.556;9.342;2023-03-01T20:13:18;64.72;;;22.83;;
21743;SDS011;11034;48.556;9.342;2023-03-01T20:15:49;49.55;;;23.05;;
21743;SDS011;11034;48.556;9.342;2023-03-01T20:18:17;48.22;;;23.08;;
21743;SDS011;11034;48.556;9.342;2023-03-01T20:20:47;50.55;;;23.80;;
21743;SDS011;11034;48.556;9.342;2023-03-01T20:23:15;42.90;;;22.42;;
21743;SDS011;11034;48.556;9.342;2023-03-01T20:25:44;44.25;;;21.60;;
21743;SDS011;11034;48.556;9.342;2023-03-01T20:28:13;41.00;;;21.83;;
21743;SDS011;11034;48.556;9.342;2023-03-01T20:30:41;44.35;;;21.58;;
21743;SDS011;11034;48.556;9.342;2023-03-01T20:33:11;44.60;;;21.45;;
21743;SDS011;11034;48.556;9.342;2023-03-01T20:35:40;35.90;;;19.63;;
21743;SDS011;11034;48.556;9.342;2023-03-01T20:38:08;50.83;;;27.65;;
21743;SDS011;11034;48.556;9.342;2023-03-01T20:40:36;43.30;;;22.45;;
21743;SDS011;11034;48.556;9.342;2023-03-01T20:43:04;81.35;;;42.88;;
21743;SDS011;11034;48.556;9.342;2023-03-01T20:45:32;86.70;;;45.00;;
21743;SDS011;11034;48.556;9.342;2023-03-01T20:48:00;84.22;;;39.53;;
21743;SDS011;11034;48.556;9.342;2023-03-01T20:50:29;72.38;;;35.10;;
21743;SDS011;11034;48.556;9.342;2023-03-01T20:52:58;70.70;;;36.58;;
21743;SDS011;11034;48.556;9.342;2023-03-01T20:55:26;68.05;;;33.55;;
21743;SDS011;11034;48.556;9.342;2023-03-01T20:57:54;65.05;;;32.63;;
